Tor Futura — OZZE2 — position and weather

sailwx.info

Track history (hours):
 
Tides and Currents Weather Stations Pressure Air Temp Water Temp Dewpoint Dewpoint Depression Visibility Wind Speed Wind Dir Waves Ship Positions

Tor Futura

Last reported at 2014-Dec-19 18:27 UTC. Time now 2014-Dec-19 23:30 UTC.
Position N 38°33' E 008°44'.

Length 183.1 m; beam 25.2 m; draft 7.8 m.

Type: Cargo ship. MMSI: 219927000.

Date/timePositionNaut miles runAvg speedWind from/ knotsBaromVisibWave heightAir tempDewpointWater temp
2014-Dec-19 18:27N 38°33' E 008°44'1813.8
2014-Dec-19 17:06N 38°46' E 008°28'1413.7
2014-Dec-19 16:06N 38°57' E 008°17'813.6
2014-Dec-19 15:31N 39°04' E 008°12'1414.1
2014-Dec-19 14:31N 39°16' E 008°03'21714.2
2014-Dec-18 23:13N 42°26' E 005°44'1114.2
2014-Dec-18 22:27N 42°35' E 005°37'1613.9
2014-Dec-18 21:18N 42°49' E 005°26'1313.9
2014-Dec-18 20:25N 42°60' E 005°18'1213.6
2014-Dec-18 19:33N 43°10' E 005°10'1111.4
2014-Dec-18 18:33N 43°20' E 005°18'3 3.0
2014-Dec-18 17:32N 43°19' E 005°22'0 0.0
2014-Dec-18 16:32N 43°19' E 005°22'0 0.0
2014-Dec-18 15:32N 43°19' E 005°22'0 0.0
2014-Dec-18 14:26N 43°19' E 005°22'0 0.0
2014-Dec-18 13:29N 43°19' E 005°22'0 0.0
2014-Dec-18 12:32N 43°19' E 005°22'0 0.0
2014-Dec-18 11:26N 43°19' E 005°22'0 0.0
2014-Dec-18 10:26N 43°19' E 005°22'0 0.0
2014-Dec-18 09:32N 43°19' E 005°22'0 0.0
2014-Dec-18 08:32N 43°19' E 005°22'0 0.0
2014-Dec-18 07:26N 43°19' E 005°22'2 1.9
2014-Dec-18 06:33N 43°20' E 005°20'1110.7
2014-Dec-18 05:33N 43°12' E 005°11'1413.6
2014-Dec-18 04:30N 42°59' E 005°20'23214.2
2014-Dec-17 12:09N 39°36' E 007°49'914.8
2014-Dec-17 11:32N 39°28' E 007°55'1414.4
2014-Dec-17 10:33N 39°15' E 008°04'1514.7
2014-Dec-17 09:30N 39°02' E 008°14'1515.0
2014-Dec-17 08:28N 38°49' E 008°24'1516.5
2014-Dec-17 07:33N 38°40' E 008°40'  
2014-Dec-14 17:08N 38°49' E 008°23'1312.9
2014-Dec-14 16:09N 39°00' E 008°15'23713.9
2014-Dec-13 23:08N 42°28' E 005°43'5113.9
2014-Dec-13 19:31N 43°12' E 005°09'1111.8
2014-Dec-13 18:34N 43°21' E 005°19'3 2.6
2014-Dec-13 17:32N 43°19' E 005°22'0 0.0
2014-Dec-13 16:32N 43°19' E 005°22'0 0.0
2014-Dec-13 15:29N 43°19' E 005°22'0 0.0
2014-Dec-13 14:26N 43°19' E 005°22'0 0.0
2014-Dec-13 13:32N 43°19' E 005°22'0 0.0
2014-Dec-13 12:26N 43°19' E 005°22'0 0.0
2014-Dec-13 11:26N 43°19' E 005°22'0 0.0
2014-Dec-13 10:32N 43°19' E 005°22'0 0.0
2014-Dec-13 09:29N 43°19' E 005°22'0 0.0
2014-Dec-13 08:29N 43°19' E 005°22'0 0.0
2014-Dec-13 07:32N 43°19' E 005°22'0 0.0
2014-Dec-13 06:32N 43°19' E 005°22'2 1.9
2014-Dec-13 05:33N 43°21' E 005°20'10 9.5
2014-Dec-13 04:33N 43°14' E 005°11'24815.2
2014-Dec-12 12:13N 39°35' E 007°50'1115.8
2014-Dec-12 11:31N 39°26' E 007°57'2115.4
2014-Dec-12 10:07N 39°07' E 008°10'1115.5
2014-Dec-12 09:24N 38°57' E 008°17'1314.8
2014-Dec-12 08:31N 38°47' E 008°28'1515.4
2014-Dec-12 07:33N 38°38' E 008°43'9 0.3
2014-Dec-10 19:29N 38°30' E 008°48'1314.3
2014-Dec-10 18:34N 38°39' E 008°36'1514.6
2014-Dec-10 17:31N 38°50' E 008°22'1414.4
2014-Dec-10 16:34N 39°02' E 008°14'1514.6
2014-Dec-10 15:31N 39°15' E 008°04'1414.7
2014-Dec-10 14:33N 39°27' E 007°55'24015.0
2014-Dec-09 22:32N 42°57' E 005°20'1414.9
2014-Dec-09 21:34N 43°09' E 005°10'1212.3
2014-Dec-09 20:33N 43°21' E 005°18'3 2.9
2014-Dec-09 19:31N 43°19' E 005°21'0 0.0
2014-Dec-09 18:28N 43°19' E 005°22'  
Track history (hours):
 
Tides and Currents Weather Stations Pressure Air Temp Water Temp Dewpoint Dewpoint Depression Visibility Wind Speed Wind Dir Waves Ship Positions

Tor Futura

Last reported at 2014-Dec-19 18:27 UTC. Time now 2014-Dec-19 23:30 UTC.
Position N 38°33' E 008°44'.

Length 183.1 m; beam 25.2 m; draft 7.8 m.

Type: Cargo ship. MMSI: 219927000.

Date/timePositionNaut miles runAvg speedWind from/ knotsBaromVisibWave heightAir tempDewpointWater temp
2014-Dec-19 18:27N 38°33' E 008°44'1813.8
2014-Dec-19 17:06N 38°46' E 008°28'1413.7
2014-Dec-19 16:06N 38°57' E 008°17'813.6
2014-Dec-19 15:31N 39°04' E 008°12'1414.1
2014-Dec-19 14:31N 39°16' E 008°03'21714.2
2014-Dec-18 23:13N 42°26' E 005°44'1114.2
2014-Dec-18 22:27N 42°35' E 005°37'1613.9
2014-Dec-18 21:18N 42°49' E 005°26'1313.9
2014-Dec-18 20:25N 42°60' E 005°18'1213.6
2014-Dec-18 19:33N 43°10' E 005°10'1111.4
2014-Dec-18 18:33N 43°20' E 005°18'3 3.0
2014-Dec-18 17:32N 43°19' E 005°22'0 0.0
2014-Dec-18 16:32N 43°19' E 005°22'0 0.0
2014-Dec-18 15:32N 43°19' E 005°22'0 0.0
2014-Dec-18 14:26N 43°19' E 005°22'0 0.0
2014-Dec-18 13:29N 43°19' E 005°22'0 0.0
2014-Dec-18 12:32N 43°19' E 005°22'0 0.0
2014-Dec-18 11:26N 43°19' E 005°22'0 0.0
2014-Dec-18 10:26N 43°19' E 005°22'0 0.0
2014-Dec-18 09:32N 43°19' E 005°22'0 0.0
2014-Dec-18 08:32N 43°19' E 005°22'0 0.0
2014-Dec-18 07:26N 43°19' E 005°22'2 1.9
2014-Dec-18 06:33N 43°20' E 005°20'1110.7
2014-Dec-18 05:33N 43°12' E 005°11'1413.6
2014-Dec-18 04:30N 42°59' E 005°20'23214.2
2014-Dec-17 12:09N 39°36' E 007°49'914.8
2014-Dec-17 11:32N 39°28' E 007°55'1414.4
2014-Dec-17 10:33N 39°15' E 008°04'1514.7
2014-Dec-17 09:30N 39°02' E 008°14'1515.0
2014-Dec-17 08:28N 38°49' E 008°24'1516.5
2014-Dec-17 07:33N 38°40' E 008°40'  
2014-Dec-14 17:08N 38°49' E 008°23'1312.9
2014-Dec-14 16:09N 39°00' E 008°15'23713.9
2014-Dec-13 23:08N 42°28' E 005°43'5113.9
2014-Dec-13 19:31N 43°12' E 005°09'1111.8
2014-Dec-13 18:34N 43°21' E 005°19'3 2.6
2014-Dec-13 17:32N 43°19' E 005°22'0 0.0
2014-Dec-13 16:32N 43°19' E 005°22'0 0.0
2014-Dec-13 15:29N 43°19' E 005°22'0 0.0
2014-Dec-13 14:26N 43°19' E 005°22'0 0.0
2014-Dec-13 13:32N 43°19' E 005°22'0 0.0
2014-Dec-13 12:26N 43°19' E 005°22'0 0.0
2014-Dec-13 11:26N 43°19' E 005°22'0 0.0
2014-Dec-13 10:32N 43°19' E 005°22'0 0.0
2014-Dec-13 09:29N 43°19' E 005°22'0 0.0
2014-Dec-13 08:29N 43°19' E 005°22'0 0.0
2014-Dec-13 07:32N 43°19' E 005°22'0 0.0
2014-Dec-13 06:32N 43°19' E 005°22'2 1.9
2014-Dec-13 05:33N 43°21' E 005°20'10 9.5
2014-Dec-13 04:33N 43°14' E 005°11'24815.2
2014-Dec-12 12:13N 39°35' E 007°50'1115.8
2014-Dec-12 11:31N 39°26' E 007°57'2115.4
2014-Dec-12 10:07N 39°07' E 008°10'1115.5
2014-Dec-12 09:24N 38°57' E 008°17'1314.8
2014-Dec-12 08:31N 38°47' E 008°28'1515.4
2014-Dec-12 07:33N 38°38' E 008°43'9 0.3
2014-Dec-10 19:29N 38°30' E 008°48'1314.3
2014-Dec-10 18:34N 38°39' E 008°36'1514.6
2014-Dec-10 17:31N 38°50' E 008°22'1414.4
2014-Dec-10 16:34N 39°02' E 008°14'1514.6
2014-Dec-10 15:31N 39°15' E 008°04'1414.7
2014-Dec-10 14:33N 39°27' E 007°55'24015.0
2014-Dec-09 22:32N 42°57' E 005°20'1414.9
2014-Dec-09 21:34N 43°09' E 005°10'1212.3
2014-Dec-09 20:33N 43°21' E 005°18'3 2.9
2014-Dec-09 19:31N 43°19' E 005°21'0 0.0
2014-Dec-09 18:28N 43°19' E 005°22'  

Dump ship's entire track history